Terminal Aerodrome Forecast
Issued by NWS Charleston, WV

Current Version | Previous Version | Graphics & Text | Print | Product List | Glossary On
Versions: 1 2 3 4 5 6 7 8 9 10 11 12 13 14 15 16 17 18 19 20 21 22
000
FTUS41 KRLX 081500 AAA
TAFHTS
TAF AMD
KHTS 081514Z 0815/0912 22011G19KT P6SM SCT035 BKN150
     FM081900 23013G21KT 5SM TSRA BR BKN035CB
     FM090000 24008KT P6SM VCTS BKN035CB
     FM091000 28004KT 5SM BR SCT025=

USA.gov is the U.S. government's official web portal to all federal, state and local government web resources and services.